Time;durP1;ratioP1;P1;durP2;ratioP2;P2;SDS_P1;SDS_P2;PMS_P1;PMS_P2;Temp;Humidity;BMP_temperature;BMP_pressure;BME280_temperature;BME280_humidity;BME280_pressure;Samples;Min_cycle;Max_cycle;Signal;HPM_P1;HPM_P2
2023/03/10 00:00:18;;;;;;;5.53;0.88;;;;;;;19.61;35.78;98667.31;16115901;19;129465;-50
2023/03/10 00:05:40;;;;;;;1.08;0.40;;;;;;;19.57;35.47;98665.47;16116547;19;131006;-48
2023/03/10 00:11:02;;;;;;;1.30;0.50;;;;;;;19.53;35.87;98662.47;16117882;19;129941;-47
2023/03/10 00:16:29;;;;;;;1.60;0.73;;;;;;;19.51;35.69;98661.97;16114372;19;130759;-50
2023/03/10 00:21:52;;;;;;;0.85;0.50;;;;;;;19.47;35.78;98660.94;16121227;19;129921;-48
2023/03/10 00:27:13;;;;;;;0.95;0.30;;;;;;;19.42;35.67;98663.81;16117052;19;131172;-51
2023/03/10 00:32:35;;;;;;;1.50;0.32;;;;;;;19.40;35.84;98660.53;16110944;19;131828;-47
2023/03/10 00:37:57;;;;;;;1.35;0.45;;;;;;;19.34;35.78;98662.56;16118422;19;130212;-45
2023/03/10 00:43:19;;;;;;;0.75;0.30;;;;;;;19.30;36.09;98656.81;16119420;19;129858;-48
2023/03/10 00:48:42;;;;;;;0.88;0.40;;;;;;;19.28;36.21;98659.06;16119033;19;129351;-48
2023/03/10 00:54:04;;;;;;;0.30;0.20;;;;;;;19.24;36.05;98660.81;16114376;19;130272;-47
2023/03/10 00:59:25;;;;;;;1.00;0.38;;;;;;;19.22;36.06;98665.81;16112894;19;129537;-48
2023/03/10 01:04:50;;;;;;;0.70;0.30;;;;;;;19.20;36.10;98662.53;16110494;19;131132;-48
2023/03/10 01:10:12;;;;;;;1.63;0.68;;;;;;;19.17;36.11;98649.28;16116226;19;129587;-54
2023/03/10 01:15:34;;;;;;;1.73;0.32;;;;;;;19.14;35.68;98653.47;16114338;19;130146;-47
2023/03/10 01:20:56;;;;;;;0.70;0.30;;;;;;;19.13;36.37;98637.97;16116332;19;131846;-48
2023/03/10 01:26:18;;;;;;;1.00;0.40;;;;;;;19.10;35.76;98635.81;16110049;19;129581;-47
2023/03/10 01:31:40;;;;;;;1.90;0.60;;;;;;;19.08;36.02;98622.25;16110180;19;130812;-49
2023/03/10 01:37:02;;;;;;;0.68;0.25;;;;;;;19.06;35.88;98619.00;16114752;19;131175;-47
2023/03/10 01:42:24;;;;;;;0.50;0.20;;;;;;;19.05;36.17;98625.66;16114554;19;130101;-49
2023/03/10 01:47:46;;;;;;;0.17;0.17;;;;;;;19.02;36.16;98612.41;16113614;19;131446;-47
2023/03/10 01:53:09;;;;;;;0.77;0.30;;;;;;;19.00;36.06;98603.56;16116188;19;129148;-48
2023/03/10 01:58:38;;;;;;;0.45;0.20;;;;;;;19.00;36.09;98592.47;16109396;19;130859;-45
2023/03/10 02:04:06;;;;;;;0.40;0.20;;;;;;;18.97;35.73;98587.53;16111971;19;130721;-44
2023/03/10 02:09:29;;;;;;;0.63;0.20;;;;;;;18.95;36.19;98577.91;16113291;19;130232;-48
2023/03/10 02:14:52;;;;;;;0.88;0.30;;;;;;;18.93;35.75;98575.44;16111294;19;132287;-47
2023/03/10 02:20:40;;;;;;;0.65;0.13;;;;;;;18.93;35.89;98567.13;16113593;19;131116;-47
2023/03/10 02:26:16;;;;;;;0.75;0.20;;;;;;;18.89;36.14;98557.78;16124854;19;129506;-48
2023/03/10 02:31:39;;;;;;;1.05;0.20;;;;;;;18.86;36.21;98552.84;16121688;19;130449;-49
2023/03/10 02:37:00;;;;;;;0.90;0.10;;;;;;;18.85;36.20;98540.13;16127563;19;129603;-45
2023/03/10 02:42:26;;;;;;;1.05;0.17;;;;;;;18.84;36.06;98527.41;16130952;19;129297;-47
2023/03/10 02:47:48;;;;;;;0.73;0.35;;;;;;;18.82;35.82;98535.22;16127249;19;131595;-50
2023/03/10 02:53:15;;;;;;;0.22;0.20;;;;;;;18.82;35.88;98530.47;16124695;19;129730;-47
2023/03/10 02:58:37;;;;;;;0.13;0.10;;;;;;;18.81;35.93;98523.28;16124079;19;129594;-46
2023/03/10 03:03:59;;;;;;;1.10;0.30;;;;;;;18.79;35.71;98516.44;16123491;19;129078;-48
2023/03/10 03:09:21;;;;;;;0.88;0.13;;;;;;;18.76;35.86;98504.84;16126685;19;129767;-46
2023/03/10 03:14:42;;;;;;;0.35;0.20;;;;;;;18.76;36.01;98509.56;16121908;19;130373;-46
2023/03/10 03:20:11;;;;;;;0.35;0.25;;;;;;;18.74;35.85;98506.28;16122051;19;131172;-45
2023/03/10 03:25:36;;;;;;;0.65;0.10;;;;;;;18.73;35.72;98504.63;16124029;19;131053;-52
2023/03/10 03:30:58;;;;;;;0.80;0.20;;;;;;;18.71;35.89;98502.16;16128543;19;131338;-47
2023/03/10 03:36:19;;;;;;;1.25;0.38;;;;;;;18.70;36.13;98495.00;16125532;19;130429;-47
2023/03/10 03:41:42;;;;;;;0.25;0.08;;;;;;;18.68;35.81;98486.16;16125415;19;129356;-45
2023/03/10 03:47:07;;;;;;;0.45;0.17;;;;;;;18.67;35.74;98476.22;16121748;19;130059;-47
2023/03/10 03:52:29;;;;;;;0.63;0.20;;;;;;;18.65;36.05;98486.78;16120850;19;130734;-45
2023/03/10 03:57:51;;;;;;;0.38;0.10;;;;;;;18.65;35.78;98474.84;16124677;19;136164;-48
2023/03/10 04:03:12;;;;;;;0.13;0.10;;;;;;;18.65;35.87;98477.63;16120596;19;130824;-46
2023/03/10 04:08:34;;;;;;;0.20;0.10;;;;;;;18.62;36.21;98470.75;16119144;19;130180;-48
2023/03/10 04:13:56;;;;;;;1.27;0.20;;;;;;;18.60;35.82;98464.69;16118494;19;134869;-50
2023/03/10 04:19:18;;;;;;;1.92;0.20;;;;;;;18.59;36.25;98463.88;16116773;19;129738;-45
2023/03/10 04:24:40;;;;;;;0.85;0.20;;;;;;;18.59;35.88;98471.38;16119264;19;131683;-47
2023/03/10 04:30:03;;;;;;;0.90;0.30;;;;;;;18.57;36.08;98468.09;16119926;19;129127;-45
2023/03/10 04:35:25;;;;;;;1.42;0.30;;;;;;;18.56;35.81;98464.50;16118583;19;129596;-47
2023/03/10 04:40:53;;;;;;;0.45;0.20;;;;;;;18.56;35.81;98455.38;16119228;19;130350;-48
2023/03/10 04:46:14;;;;;;;0.35;0.10;;;;;;;18.54;35.81;98457.63;16117483;19;131669;-45
2023/03/10 04:51:36;;;;;;;0.40;0.30;;;;;;;18.52;36.10;98449.66;16115067;19;130439;-47
2023/03/10 04:56:58;;;;;;;1.80;0.43;;;;;;;18.52;36.06;98454.34;16118303;19;131527;-46
2023/03/10 05:02:20;;;;;;;1.17;0.30;;;;;;;18.50;35.84;98451.91;16119565;19;130097;-48
2023/03/10 05:07:42;;;;;;;0.98;0.30;;;;;;;18.50;36.23;98464.91;16113220;19;129668;-47
2023/03/10 05:13:04;;;;;;;1.80;0.35;;;;;;;18.49;36.11;98463.25;16115790;19;131063;-48
2023/03/10 05:18:26;;;;;;;3.58;0.25;;;;;;;18.49;35.90;98471.56;16114996;19;129824;-48
2023/03/10 05:23:48;;;;;;;2.03;0.20;;;;;;;18.46;36.27;98464.69;16115604;19;129556;-49
2023/03/10 05:29:10;;;;;;;0.77;0.10;;;;;;;18.44;35.84;98453.94;16114359;19;132112;-45
2023/03/10 05:34:32;;;;;;;0.17;0.05;;;;;;;18.43;35.85;98452.28;16112766;19;131506;-47
2023/03/10 05:39:54;;;;;;;1.48;0.30;;;;;;;18.43;36.09;98452.28;16115539;19;130659;-45
2023/03/10 05:45:16;;;;;;;1.92;0.40;;;;;;;18.42;35.99;98453.41;16114255;19;134689;-48
2023/03/10 05:50:38;;;;;;;1.27;0.30;;;;;;;18.40;36.00;98463.97;16107760;19;130209;-46
2023/03/10 05:56:05;;;;;;;0.98;0.20;;;;;;;18.40;36.14;98463.97;16113206;19;131864;-48
2023/03/10 06:01:27;;;;;;;0.50;0.20;;;;;;;18.38;35.91;98462.59;16128758;19;130345;-46
2023/03/10 06:06:49;;;;;;;3.47;0.40;;;;;;;18.40;35.94;98469.50;16124208;19;129842;-47
2023/03/10 06:12:11;;;;;;;3.45;0.40;;;;;;;18.54;36.32;98468.72;16127717;19;133085;-47
2023/03/10 06:17:32;;;;;;;3.88;0.40;;;;;;;18.82;35.67;98479.81;16128584;19;130969;-45
2023/03/10 06:22:54;;;;;;;4.97;0.70;;;;;;;19.11;35.55;98473.13;16131542;19;129657;-48
2023/03/10 06:28:16;;;;;;;9.98;0.63;;;;;;;19.36;35.42;98460.69;16120594;19;130665;-48
2023/03/10 06:33:38;;;;;;;4.28;0.47;;;;;;;19.49;34.94;98457.06;16109053;19;131043;-48
2023/03/10 06:39:00;;;;;;;7.10;0.60;;;;;;;19.53;34.70;98463.63;16118536;19;131641;-46
2023/03/10 06:44:22;;;;;;;10.13;0.88;;;;;;;19.51;35.10;98473.41;16120026;19;132274;-46
2023/03/10 06:49:43;;;;;;;5.63;0.55;;;;;;;19.46;35.04;98460.47;16125116;19;129642;-47
2023/03/10 06:55:06;;;;;;;7.15;1.00;;;;;;;19.41;35.04;98462.53;16122953;19;130990;-49
2023/03/10 07:00:28;;;;;;;17.48;1.15;;;;;;;19.34;35.15;98469.31;16119712;19;130765;-48
2023/03/10 07:05:50;;;;;;;24.27;1.15;;;;;;;19.28;35.07;98473.34;16127753;19;131687;-49
2023/03/10 07:11:11;;;;;;;15.43;1.08;;;;;;;19.21;35.28;98471.00;16126806;19;130505;-47
2023/03/10 07:16:33;;;;;;;8.02;0.90;;;;;;;19.17;35.42;98469.13;16126721;19;129690;-48
2023/03/10 07:21:55;;;;;;;15.10;1.10;;;;;;;19.12;35.68;98478.38;16126796;19;129630;-45
2023/03/10 07:27:17;;;;;;;10.48;1.20;;;;;;;19.08;35.69;98478.16;16126482;19;131276;-47
2023/03/10 07:32:38;;;;;;;20.55;1.30;;;;;;;19.03;35.29;98486.59;16124333;19;131141;-48
2023/03/10 07:38:00;;;;;;;16.48;1.48;;;;;;;19.04;35.25;98492.94;16126560;19;129289;-44
2023/03/10 07:43:22;;;;;;;14.70;1.23;;;;;;;19.05;35.47;98494.56;16125000;19;129555;-44
2023/03/10 07:48:44;;;;;;;12.40;1.27;;;;;;;19.01;35.73;98497.16;16122926;19;130747;-44
2023/03/10 07:54:06;;;;;;;14.27;1.63;;;;;;;18.98;35.51;98494.19;16123849;19;129893;-47
2023/03/10 07:59:27;;;;;;;16.33;1.40;;;;;;;18.94;35.61;98496.75;16124089;19;129785;-44
2023/03/10 08:04:49;;;;;;;16.10;1.60;;;;;;;18.89;35.85;98499.59;16125533;19;130547;-45
2023/03/10 08:10:11;;;;;;;17.48;1.27;;;;;;;18.86;35.93;98497.44;16127417;19;131729;-46
2023/03/10 08:15:33;;;;;;;17.40;2.13;;;;;;;18.82;35.68;98502.78;16123316;19;129445;-46
2023/03/10 08:20:55;;;;;;;11.98;1.35;;;;;;;18.80;35.90;98512.53;16123180;19;130728;-46
2023/03/10 08:26:18;;;;;;;10.90;1.13;;;;;;;18.80;35.95;98495.91;16120718;19;130976;-46
2023/03/10 08:31:40;;;;;;;4.53;0.82;;;;;;;18.90;35.99;98506.78;16123211;19;130970;-45
2023/03/10 08:37:03;;;;;;;7.93;1.02;;;;;;;19.12;35.94;98505.25;16120347;19;129269;-47
2023/03/10 08:42:25;;;;;;;13.82;0.75;;;;;;;19.33;35.33;98498.16;16117572;19;130778;-44
2023/03/10 08:47:47;;;;;;;16.75;1.38;;;;;;;19.50;35.60;98494.78;16117598;19;129287;-44
2023/03/10 08:53:11;;;;;;;6.47;0.88;;;;;;;19.66;35.20;98492.47;16118991;19;129452;-44
2023/03/10 08:58:33;;;;;;;15.35;1.70;;;;;;;19.84;34.77;98493.44;16121946;19;129399;-44
2023/03/10 09:03:55;;;;;;;13.95;1.58;;;;;;;20.00;34.69;98487.53;16120226;19;129513;-45
2023/03/10 09:09:17;;;;;;;13.60;1.20;;;;;;;20.08;34.91;98489.56;16118403;19;129600;-46
2023/03/10 09:14:42;;;;;;;19.27;1.27;;;;;;;20.10;35.02;98481.75;16116304;19;130522;-49
2023/03/10 09:20:07;;;;;;;17.58;1.83;;;;;;;20.07;34.78;98487.09;16117009;19;130893;-45
2023/03/10 09:25:29;;;;;;;20.38;2.78;;;;;;;19.98;34.95;98479.50;16116188;19;129931;-45
2023/03/10 09:30:52;;;;;;;29.23;2.08;;;;;;;19.91;35.37;98487.44;16117955;19;129773;-41
2023/03/10 09:36:15;;;;;;;19.27;2.10;;;;;;;19.86;35.22;98482.00;16118012;19;129627;-42
2023/03/10 09:42:23;;;;;;;17.13;1.70;;;;;;;19.81;35.37;98488.50;16116124;19;130970;-43
2023/03/10 09:48:26;;;;;;;21.27;1.70;;;;;;;19.73;35.84;98480.09;16121434;19;129756;-43
2023/03/10 09:54:06;;;;;;;13.40;1.30;;;;;;;19.64;35.67;98477.25;16115490;19;131060;-46
2023/03/10 09:59:36;;;;;;;16.30;1.88;;;;;;;19.57;35.74;98483.22;16118109;19;129609;-42
2023/03/10 10:05:02;;;;;;;13.13;1.70;;;;;;;19.53;36.01;98487.78;16114470;19;129757;-46
2023/03/10 10:10:37;;;;;;;18.50;1.52;;;;;;;19.53;36.00;98504.41;16115539;19;129909;-42
2023/03/10 10:16:06;;;;;;;10.27;1.13;;;;;;;19.50;36.06;98505.03;16113699;19;129999;-44
2023/03/10 10:22:09;;;;;;;15.60;1.63;;;;;;;19.47;35.90;98516.72;16112856;19;131071;-43
2023/03/10 10:27:31;;;;;;;11.50;1.52;;;;;;;19.43;36.20;98515.72;16110095;19;136585;-43
2023/03/10 10:33:07;;;;;;;12.60;1.25;;;;;;;19.43;36.16;98513.75;16110765;19;129684;-46
2023/03/10 10:38:31;;;;;;;7.18;0.90;;;;;;;19.41;36.02;98506.91;16112492;19;130660;-44
2023/03/10 10:43:56;;;;;;;8.40;1.30;;;;;;;19.38;36.08;98498.06;16119620;19;129609;-44
2023/03/10 10:49:22;;;;;;;6.90;1.05;;;;;;;19.33;36.29;98492.63;16129201;19;130188;-46
2023/03/10 10:54:55;;;;;;;10.60;1.40;;;;;;;19.25;36.08;98487.81;16126966;19;129443;-48
2023/03/10 11:00:36;;;;;;;7.45;1.08;;;;;;;19.22;36.16;98505.91;16128216;19;130397;-46
2023/03/10 11:05:59;;;;;;;4.18;0.70;;;;;;;19.21;36.28;98514.50;16127587;19;129522;-44
2023/03/10 11:11:50;;;;;;;7.55;0.80;;;;;;;19.25;36.40;98537.72;16128921;19;129401;-47
2023/03/10 11:17:15;;;;;;;5.45;0.50;;;;;;;19.28;36.08;98534.31;16124727;19;130082;-46
2023/03/10 11:22:53;;;;;;;6.60;1.55;;;;;;;19.36;36.33;98514.19;16126125;19;129251;-44
2023/03/10 11:28:46;;;;;;;6.57;0.68;;;;;;;19.44;35.86;98506.28;16129067;19;130747;-43
2023/03/10 11:34:18;;;;;;;6.80;0.77;;;;;;;19.47;35.76;98514.78;16126927;19;129465;-44
2023/03/10 11:39:47;;;;;;;5.82;0.45;;;;;;;19.52;35.96;98513.84;16127224;19;129623;-44
2023/03/10 11:45:31;;;;;;;3.97;0.60;;;;;;;19.58;35.95;98520.13;16128406;19;129596;-44
2023/03/10 11:51:02;;;;;;;3.90;0.73;;;;;;;19.61;35.85;98519.50;16122852;19;129982;-44
2023/03/10 11:56:26;;;;;;;2.58;0.50;;;;;;;19.61;35.78;98505.63;16122114;19;131564;-44
2023/03/10 12:02:39;;;;;;;2.38;0.35;;;;;;;19.60;36.12;98509.53;16124600;19;128979;-44
2023/03/10 12:08:03;;;;;;;6.13;0.55;;;;;;;19.53;35.96;98516.31;16112569;19;130398;-47
2023/03/10 12:13:39;;;;;;;4.50;0.50;;;;;;;19.50;36.00;98514.19;16113303;19;129991;-44
2023/03/10 12:19:04;;;;;;;1.70;0.30;;;;;;;19.45;36.33;98510.66;16112703;19;130632;-44
2023/03/10 12:24:42;;;;;;;1.98;0.40;;;;;;;19.41;36.08;98507.72;16113256;19;129514;-44
2023/03/10 12:30:42;;;;;;;4.43;0.38;;;;;;;19.36;36.37;98521.69;16114341;19;130436;-46
2023/03/10 12:36:36;;;;;;;4.35;0.50;;;;;;;19.30;36.59;98547.88;16111680;19;129997;-44
2023/03/10 12:42:02;;;;;;;6.18;0.82;;;;;;;19.25;36.57;98561.84;16119100;19;130056;-45
2023/03/10 12:47:48;;;;;;;8.05;4.20;;;;;;;19.22;36.63;98554.94;16118367;19;129419;-43
2023/03/10 12:53:10;;;;;;;14.07;7.45;;;;;;;19.18;36.54;98553.91;16123220;19;129589;-45
2023/03/10 12:58:35;;;;;;;14.25;8.63;;;;;;;19.17;36.96;98546.72;16120479;19;129531;-45
2023/03/10 13:03:57;;;;;;;19.57;10.53;;;;;;;19.14;36.85;98563.97;16121960;19;130974;-45
2023/03/10 13:09:27;;;;;;;19.55;11.90;;;;;;;19.12;37.09;98571.75;16119822;19;129096;-44
2023/03/10 13:14:56;;;;;;;20.60;12.63;;;;;;;19.08;36.98;98577.91;16119654;19;129389;-45
2023/03/10 13:20:18;;;;;;;21.83;11.90;;;;;;;19.05;37.02;98614.56;16118754;19;130179;-46
2023/03/10 13:25:59;;;;;;;22.55;11.95;;;;;;;19.05;37.17;98627.59;16117484;19;130690;-44
2023/03/10 13:31:26;;;;;;;22.45;11.93;;;;;;;19.01;36.93;98657.84;16117043;19;129356;-48
2023/03/10 13:36:48;;;;;;;20.63;10.15;;;;;;;18.99;36.85;98684.25;16109729;19;129763;-50
2023/03/10 13:42:21;;;;;;;16.67;10.23;;;;;;;18.97;36.83;98703.09;16117706;19;129428;-50
2023/03/10 13:47:52;;;;;;;16.08;9.35;;;;;;;18.93;37.20;98741.69;16120222;19;131210;-48
2023/03/10 13:53:26;;;;;;;14.02;7.95;;;;;;;18.92;37.20;98746.38;16118381;19;129477;-50
2023/03/10 13:58:50;;;;;;;17.45;7.55;;;;;;;18.89;37.24;98763.59;16117303;19;129459;-48
2023/03/10 14:04:16;;;;;;;13.52;7.45;;;;;;;18.85;36.92;98781.13;16116474;19;129203;-49
2023/03/10 14:09:39;;;;;;;10.35;5.95;;;;;;;18.80;37.02;98853.25;16114344;19;130393;-52
2023/03/10 14:15:22;;;;;;;9.27;4.35;;;;;;;18.75;36.63;98907.59;16117872;19;129359;-51
2023/03/10 14:20:46;;;;;;;6.10;3.65;;;;;;;18.70;36.17;98943.69;16124133;19;130512;-51
2023/03/10 14:26:15;;;;;;;7.72;2.65;;;;;;;18.69;35.82;98975.25;16136559;19;129811;-48
2023/03/10 14:31:37;;;;;;;5.35;2.03;;;;;;;18.72;35.17;99035.59;16131815;19;130840;-50
2023/03/10 14:36:58;;;;;;;2.72;1.50;;;;;;;18.71;34.27;99060.81;16131092;19;129388;-47
2023/03/10 14:42:27;;;;;;;4.07;1.08;;;;;;;18.70;33.95;99123.72;16132883;19;129732;-49
2023/03/10 14:47:49;;;;;;;2.63;1.02;;;;;;;18.69;33.64;99177.47;16131942;19;130624;-50
2023/03/10 14:53:14;;;;;;;4.18;0.82;;;;;;;18.71;33.15;99227.84;16131810;19;130437;-46
2023/03/10 14:58:45;;;;;;;1.92;0.80;;;;;;;18.67;32.39;99251.72;16130644;19;129939;-46
2023/03/10 15:04:14;;;;;;;3.10;1.05;;;;;;;18.69;32.93;99296.59;16131850;19;129560;-44
2023/03/10 15:09:36;;;;;;;3.88;0.88;;;;;;;18.71;33.60;99319.25;16130470;19;129535;-48
2023/03/10 15:14:58;;;;;;;2.83;1.00;;;;;;;18.75;33.19;99353.59;16130936;19;130227;-45
2023/03/10 15:20:23;;;;;;;4.30;0.90;;;;;;;18.76;32.83;99394.03;16128378;19;129461;-47
2023/03/10 15:25:44;;;;;;;5.07;0.90;;;;;;;18.72;32.88;99461.38;16127896;19;131928;-46
2023/03/10 15:31:06;;;;;;;2.50;0.93;;;;;;;18.73;32.08;99505.41;16131133;19;129426;-52
2023/03/10 15:36:28;;;;;;;5.28;1.10;;;;;;;18.89;31.96;99513.69;16127125;19;130656;-53
2023/03/10 15:41:50;;;;;;;2.30;1.00;;;;;;;19.05;31.71;99608.69;16126139;19;129344;-56
2023/03/10 15:47:12;;;;;;;4.53;0.60;;;;;;;19.17;31.33;99641.66;16128324;19;129440;-49
2023/03/10 15:52:33;;;;;;;1.13;0.60;;;;;;;19.29;31.40;99653.28;16124081;19;129766;-48
2023/03/10 15:57:56;;;;;;;2.22;0.50;;;;;;;19.36;30.48;99677.97;16128529;19;130848;-43
2023/03/10 16:03:18;;;;;;;4.80;0.60;;;;;;;19.41;30.52;99700.13;16124043;19;130955;-46
2023/03/10 16:08:40;;;;;;;6.38;0.73;;;;;;;19.42;30.44;99737.00;16120109;19;130796;-45
2023/03/10 16:14:02;;;;;;;14.45;1.25;;;;;;;19.42;30.27;99767.53;16123354;19;129986;-44
2023/03/10 16:19:26;;;;;;;7.38;0.93;;;;;;;19.39;30.93;99816.03;16118692;19;129444;-43
2023/03/10 16:24:47;;;;;;;18.02;1.65;;;;;;;19.32;30.52;99840.47;16123276;19;129547;-46
2023/03/10 16:30:11;;;;;;;6.28;0.93;;;;;;;19.19;30.48;99847.38;16119597;19;130780;-44
2023/03/10 16:35:33;;;;;;;5.25;0.80;;;;;;;19.11;30.83;99850.69;16121217;19;129814;-43
2023/03/10 16:40:56;;;;;;;5.38;0.88;;;;;;;18.99;30.83;99893.34;16120302;19;130980;-45
2023/03/10 16:46:28;;;;;;;3.08;0.60;;;;;;;18.87;30.80;99907.47;16121952;19;130111;-46
2023/03/10 16:51:50;;;;;;;2.60;0.70;;;;;;;18.79;31.05;99885.00;16119693;19;130593;-44
2023/03/10 16:57:14;;;;;;;4.10;0.70;;;;;;;18.74;32.06;99919.88;16119227;19;129483;-44
2023/03/10 17:02:35;;;;;;;4.65;0.90;;;;;;;18.73;32.17;99947.88;16114074;19;131195;-45
2023/03/10 17:08:01;;;;;;;4.75;0.80;;;;;;;18.76;32.59;99984.19;16113555;19;129774;-45
2023/03/10 17:13:23;;;;;;;;;;;;;;;18.78;32.67;99994.97;16118925;19;129558;-45
2023/03/10 17:18:45;;;;;;;8.57;1.17;;;;;;;18.84;32.75;100010.53;16116800;19;129985;-45
2023/03/10 17:24:07;;;;;;;6.05;1.10;;;;;;;18.93;33.19;100030.25;16117156;19;130098;-43
2023/03/10 17:29:30;;;;;;;13.63;0.98;;;;;;;19.03;32.80;100049.72;16116337;19;130718;-46
2023/03/10 17:34:52;;;;;;;13.80;1.42;;;;;;;19.16;33.19;100062.22;16117230;19;129396;-45
2023/03/10 17:40:16;;;;;;;8.25;1.00;;;;;;;19.43;33.16;100079.84;16113044;19;131230;-44
2023/03/10 17:45:37;;;;;;;10.95;1.05;;;;;;;19.64;32.68;100109.31;16111413;19;131218;-40
2023/03/10 17:50:59;;;;;;;7.15;1.00;;;;;;;19.73;32.23;100134.59;16115242;19;131276;-43
2023/03/10 17:56:21;;;;;;;6.78;0.90;;;;;;;19.67;31.76;100144.00;16108990;19;130267;-45
2023/03/10 18:01:44;;;;;;;4.72;0.98;;;;;;;19.57;31.35;100158.66;16109574;19;130059;-47
2023/03/10 18:07:06;;;;;;;2.25;1.00;;;;;;;19.47;30.57;100203.84;16106354;19;130966;-45
2023/03/10 18:12:28;;;;;;;6.60;0.95;;;;;;;19.35;30.74;100217.91;16111371;19;130235;-45
2023/03/10 18:17:49;;;;;;;9.95;1.17;;;;;;;19.24;30.78;100223.69;16114095;19;129507;-45
2023/03/10 18:23:11;;;;;;;6.35;0.90;;;;;;;19.13;31.01;100237.47;16104365;19;131454;-44
2023/03/10 18:28:34;;;;;;;5.47;0.90;;;;;;;19.12;30.42;100257.13;16111897;19;130408;-45
2023/03/10 18:33:55;;;;;;;5.97;1.00;;;;;;;19.24;30.47;100268.06;16109363;19;132153;-43
2023/03/10 18:39:17;;;;;;;7.97;1.13;;;;;;;19.63;29.78;100270.53;16096979;19;131824;-45
2023/03/10 18:44:45;;;;;;;12.38;1.52;;;;;;;20.18;29.59;100279.41;16110062;19;129742;-43
2023/03/10 18:50:07;;;;;;;11.48;1.77;;;;;;;20.66;28.88;100286.72;16113523;19;129265;-47
2023/03/10 18:55:29;;;;;;;22.77;2.08;;;;;;;21.02;28.76;100298.72;16111227;19;130626;-47
2023/03/10 19:00:50;;;;;;;28.88;2.30;;;;;;;21.24;28.78;100292.03;16112125;19;130741;-50
2023/03/10 19:06:12;;;;;;;30.58;3.28;;;;;;;21.38;28.52;100317.34;16116934;19;131390;-46
2023/03/10 19:11:36;;;;;;;22.35;2.53;;;;;;;21.49;28.68;100335.72;16129132;19;129899;-49
2023/03/10 19:16:57;;;;;;;37.40;2.90;;;;;;;21.51;28.94;100335.44;16128769;19;131424;-46
2023/03/10 19:22:19;;;;;;;15.93;2.33;;;;;;;21.48;29.15;100339.59;16127047;19;129490;-48
2023/03/10 19:27:41;;;;;;;18.27;2.22;;;;;;;21.44;29.37;100346.81;16125978;19;129860;-48
2023/03/10 19:33:03;;;;;;;16.15;1.75;;;;;;;21.35;29.34;100368.00;16126600;19;130531;-49
2023/03/10 19:38:26;;;;;;;12.48;2.42;;;;;;;21.22;29.24;100386.09;16123316;19;129507;-48
2023/03/10 19:43:49;;;;;;;13.77;2.05;;;;;;;21.07;29.68;100395.22;16129134;19;129661;-49
2023/03/10 19:49:11;;;;;;;10.80;1.67;;;;;;;20.92;29.75;100400.78;16123620;19;130526;-46
2023/03/10 19:54:33;;;;;;;18.15;2.53;;;;;;;20.89;29.36;100405.78;16122057;19;129478;-47
2023/03/10 19:59:55;;;;;;;12.93;2.00;;;;;;;21.11;29.45;100407.47;16122947;19;129515;-47
2023/03/10 20:05:17;;;;;;;12.48;1.95;;;;;;;21.50;29.23;100415.34;16121089;19;129989;-48
2023/03/10 20:10:39;;;;;;;5.20;1.52;;;;;;;21.96;28.69;100430.31;16123344;19;129847;-50
2023/03/10 20:16:01;;;;;;;7.75;1.38;;;;;;;22.36;28.49;100442.50;16120006;19;131170;-44
2023/03/10 20:21:24;;;;;;;6.53;1.75;;;;;;;22.69;28.12;100444.91;16123425;19;129936;-50
2023/03/10 20:26:47;;;;;;;9.85;1.90;;;;;;;22.95;28.28;100458.75;16123678;19;131437;-50
2023/03/10 20:32:09;;;;;;;11.70;1.58;;;;;;;23.14;27.93;100451.38;16120966;19;130964;-48
2023/03/10 20:37:33;;;;;;;9.27;1.52;;;;;;;23.31;27.82;100464.09;16122113;19;133090;-48
2023/03/10 20:42:58;;;;;;;12.85;2.35;;;;;;;23.48;27.88;100477.66;16122157;19;129148;-47
2023/03/10 20:48:20;;;;;;;11.88;1.75;;;;;;;23.61;28.05;100481.75;16119115;19;129367;-49
2023/03/10 20:53:41;;;;;;;6.50;1.40;;;;;;;23.76;27.62;100483.59;16118416;19;129540;-48
2023/03/10 20:59:03;;;;;;;9.70;1.50;;;;;;;23.87;27.71;100471.22;16119526;19;129596;-47
2023/03/10 21:04:25;;;;;;;6.80;1.50;;;;;;;24.01;27.53;100495.66;16118013;19;130747;-47
2023/03/10 21:09:48;;;;;;;7.55;1.95;;;;;;;24.05;27.59;100503.19;16122446;19;130169;-48
2023/03/10 21:15:13;;;;;;;7.13;1.45;;;;;;;23.96;27.48;100511.38;16122548;19;130893;-47
2023/03/10 21:20:35;;;;;;;8.23;1.40;;;;;;;23.82;27.67;100538.31;16117316;19;129090;-45
2023/03/10 21:25:57;;;;;;;6.18;1.20;;;;;;;23.64;27.93;100554.63;16112240;19;132168;-49
2023/03/10 21:31:18;;;;;;;6.70;1.30;;;;;;;23.46;28.01;100564.47;16115851;19;129589;-47
2023/03/10 21:36:40;;;;;;;3.83;1.15;;;;;;;23.24;28.15;100562.09;16114349;19;129371;-48
2023/03/10 21:42:02;;;;;;;8.05;1.20;;;;;;;23.01;28.53;100581.19;16111564;19;129593;-47
2023/03/10 21:47:24;;;;;;;7.70;1.50;;;;;;;22.80;29.01;100579.53;16113904;19;130593;-46
2023/03/10 21:52:46;;;;;;;9.95;1.40;;;;;;;22.61;28.73;100593.22;16116635;19;130562;-45
2023/03/10 21:58:08;;;;;;;8.68;1.35;;;;;;;22.38;29.49;100601.06;16118033;19;130319;-51
2023/03/10 22:03:32;;;;;;;6.32;1.27;;;;;;;22.17;29.49;100609.41;16111146;19;130555;-46
2023/03/10 22:08:54;;;;;;;8.32;1.50;;;;;;;21.90;29.74;100606.91;16113410;19;130380;-52
2023/03/10 22:14:16;;;;;;;20.73;2.15;;;;;;;21.70;29.81;100614.09;16116244;19;134281;-48
2023/03/10 22:19:38;;;;;;;18.00;1.98;;;;;;;21.52;30.28;100610.72;16111449;19;129483;-50
2023/03/10 22:24:59;;;;;;;9.55;1.58;;;;;;;21.39;30.29;100619.56;16110895;19;131129;-45
2023/03/10 22:30:23;;;;;;;10.85;1.77;;;;;;;21.27;30.26;100624.50;16107897;19;130348;-46
2023/03/10 22:35:50;;;;;;;11.77;1.75;;;;;;;21.12;30.20;100619.69;16108768;19;130776;-51
2023/03/10 22:41:12;;;;;;;19.10;1.60;;;;;;;20.98;30.80;100624.91;16117631;19;129638;-47
2023/03/10 22:46:34;;;;;;;10.18;1.52;;;;;;;20.86;30.99;100639.03;16125037;19;131421;-47
2023/03/10 22:51:57;;;;;;;11.32;1.63;;;;;;;20.77;30.98;100641.50;16124751;19;130688;-46
2023/03/10 22:57:18;;;;;;;8.48;1.42;;;;;;;20.67;30.96;100655.28;16123656;19;131188;-46
2023/03/10 23:02:40;;;;;;;7.53;2.00;;;;;;;20.56;31.09;100657.16;16119380;19;129554;-46
2023/03/10 23:08:03;;;;;;;12.30;1.83;;;;;;;20.48;31.27;100665.97;16120988;19;129526;-50
2023/03/10 23:13:25;;;;;;;12.23;1.70;;;;;;;20.38;31.29;100663.94;16122335;19;130212;-48
2023/03/10 23:18:47;;;;;;;13.82;1.55;;;;;;;20.28;31.30;100673.00;16118414;19;129974;-47
2023/03/10 23:24:09;;;;;;;7.63;1.42;;;;;;;20.19;31.31;100672.66;16125679;19;129623;-48
2023/03/10 23:29:30;;;;;;;10.65;1.70;;;;;;;20.12;31.53;100669.25;16123442;19;129814;-47
2023/03/10 23:34:52;;;;;;;4.72;1.33;;;;;;;20.06;31.43;100675.88;16123277;19;130614;-49
2023/03/10 23:40:16;;;;;;;7.45;1.95;;;;;;;19.98;31.47;100674.38;16125372;19;129732;-46
2023/03/10 23:45:38;;;;;;;9.80;1.60;;;;;;;19.92;31.65;100679.03;16121273;19;131794;-46
2023/03/10 23:51:01;;;;;;;7.70;1.42;;;;;;;19.86;31.55;100668.97;16122643;19;131406;-47
2023/03/10 23:56:23;;;;;;;10.38;1.42;;;;;;;19.81;31.87;100674.47;16121339;19;129705;-45
